createdAt,value
2022-11-24T00:02:38.765Z,1.21
2022-11-24T00:06:16.464Z,1.23
2022-11-24T00:09:53.965Z,1.24
2022-11-24T00:13:33.102Z,1.24
2022-11-24T00:17:09.357Z,1.24
2022-11-24T00:20:53.184Z,1.22
2022-11-24T00:24:24.781Z,1.21
2022-11-24T00:28:02.484Z,1.18
2022-11-24T00:31:42.740Z,1.17
2022-11-24T00:35:17.893Z,1.15
2022-11-24T00:38:57.646Z,1.15
2022-11-24T00:42:33.301Z,1.18
2022-11-24T00:46:11.841Z,1.20
2022-11-24T00:49:48.628Z,1.21
2022-11-24T00:53:27.438Z,1.24
2022-11-24T00:57:04.117Z,1.28
2022-11-24T01:00:41.924Z,1.29
2022-11-24T01:04:19.530Z,1.27
2022-11-24T01:07:57.332Z,1.23
2022-11-24T01:11:55.108Z,1.20
2022-11-24T01:15:12.535Z,1.20
2022-11-24T01:18:50.344Z,1.20
2022-11-24T01:22:28.149Z,1.19
2022-11-24T01:26:08.681Z,1.19
2022-11-24T01:29:43.455Z,1.19
2022-11-24T01:33:20.852Z,1.19
2022-11-24T01:36:58.869Z,1.18
2022-11-24T01:40:36.264Z,1.17
2022-11-24T01:44:25.946Z,1.17
2022-11-24T01:47:51.771Z,1.17
2022-11-24T01:51:32.910Z,1.18
2022-11-24T01:55:12.945Z,1.17
2022-11-24T01:58:47.854Z,1.14
2022-11-24T02:02:23.648Z,1.09
2022-11-24T02:06:08.060Z,1.06
2022-11-24T02:09:48.904Z,1.03
2022-11-24T02:13:16.174Z,1.04
2022-11-24T02:16:53.915Z,1.03
2022-11-24T02:20:31.209Z,1.03
2022-11-24T02:24:22.024Z,1.01
2022-11-24T02:27:52.219Z,1.00
2022-11-24T02:31:24.287Z,0.99
2022-11-24T02:35:05.508Z,0.99
2022-11-24T02:38:39.627Z,1.01
2022-11-24T02:42:17.680Z,1.02
2022-11-24T02:45:55.038Z,1.02
2022-11-24T02:49:32.884Z,1.01
2022-11-24T02:53:10.382Z,1.01
2022-11-24T02:56:48.190Z,1.02
2022-11-24T03:00:25.996Z,1.05
2022-11-24T03:04:03.829Z,1.07
2022-11-24T03:07:41.224Z,1.09
2022-11-24T03:11:18.904Z,1.10
2022-11-24T03:14:56.609Z,1.13
2022-11-24T03:18:34.417Z,1.13
2022-11-24T03:22:13.419Z,1.12
2022-11-24T03:25:49.720Z,1.12
2022-11-24T03:29:27.425Z,1.12
2022-11-24T03:33:07.382Z,1.14
2022-11-24T03:36:42.741Z,1.12
2022-11-24T03:40:20.645Z,1.11
2022-11-24T03:43:58.157Z,1.13
2022-11-24T03:47:36.091Z,1.15
2022-11-24T03:51:13.650Z,1.17
2022-11-24T03:54:51.359Z,1.18
2022-11-24T03:58:29.981Z,1.19
2022-11-24T04:02:08.053Z,1.21
2022-11-24T04:05:44.365Z,1.24
2022-11-24T04:09:22.376Z,1.26
2022-11-24T04:12:59.716Z,1.28
2022-11-24T04:16:37.692Z,1.25
2022-11-24T04:20:16.308Z,1.23
2022-11-24T04:23:52.987Z,1.24
2022-11-24T04:27:32.256Z,1.22
2022-11-24T04:31:08.459Z,1.19
2022-11-24T04:34:45.794Z,1.19
2022-11-24T04:39:23.287Z,1.19
2022-11-24T04:42:01.264Z,1.19
2022-11-24T04:45:39.111Z,1.20
2022-11-24T04:49:35.660Z,1.23
2022-11-24T04:52:54.519Z,1.24
2022-11-24T04:56:33.413Z,1.24
2022-11-24T05:00:10.850Z,1.22
2022-11-24T05:03:47.520Z,1.22
2022-11-24T05:07:25.397Z,1.23
2022-11-24T05:11:06.930Z,1.24
2022-11-24T05:14:40.748Z,1.28
2022-11-24T05:18:18.345Z,1.33
2022-11-24T05:21:56.051Z,1.35
2022-11-24T05:25:36.827Z,1.37
2022-11-24T05:29:11.356Z,1.39
2022-11-24T05:32:49.066Z,1.35
2022-11-24T05:36:45.503Z,1.40
2022-11-24T05:40:05.906Z,1.40
2022-11-24T05:43:42.274Z,1.40
2022-11-24T05:47:20.496Z,1.43
2022-11-24T05:50:58.914Z,1.42
2022-11-24T05:54:35.428Z,1.42
2022-11-24T05:58:13.093Z,1.43
2022-11-24T06:01:50.815Z,1.43
2022-11-24T06:05:29.437Z,1.42
2022-11-24T06:09:08.455Z,1.43
2022-11-24T06:12:44.847Z,1.42
2022-11-24T06:16:21.848Z,1.42
2022-11-24T06:19:59.315Z,1.42
2022-11-24T06:23:36.921Z,1.45
2022-11-24T06:27:14.929Z,1.46
2022-11-24T06:30:52.530Z,1.48
2022-11-24T06:34:30.131Z,1.49
2022-11-24T06:38:07.836Z,1.50
2022-11-24T06:41:45.452Z,1.51
2022-11-24T06:45:23.620Z,1.47
2022-11-24T06:49:01.050Z,1.48
2022-11-24T06:52:38.652Z,1.48
2022-11-24T06:56:19.428Z,1.49
2022-11-24T06:59:53.988Z,1.47
2022-11-24T07:03:31.691Z,1.46
2022-11-24T07:07:09.402Z,1.43
2022-11-24T07:11:11.632Z,1.43
2022-11-24T07:14:24.672Z,1.43
2022-11-24T07:18:03.752Z,1.43
2022-11-24T07:21:40.286Z,1.41
2022-11-24T07:25:17.750Z,1.39
2022-11-24T07:28:55.493Z,1.39
2022-11-24T07:32:39.544Z,1.39
2022-11-24T07:36:13.462Z,1.38
2022-11-24T07:39:51.776Z,1.38
2022-11-24T07:43:31.654Z,1.35
2022-11-24T07:47:06.759Z,1.34
2022-11-24T07:50:44.378Z,1.32
2022-11-24T07:54:21.991Z,1.30
2022-11-24T07:58:01.152Z,1.30
2022-11-24T08:01:39.619Z,1.31
2022-11-24T08:05:15.209Z,1.35
2022-11-24T08:08:52.673Z,1.39
2022-11-24T08:12:31.422Z,1.43
2022-11-24T08:16:14.099Z,1.47
2022-11-24T08:19:46.120Z,1.49
2022-11-24T08:23:23.509Z,1.51
2022-11-24T08:27:01.215Z,1.54
2022-11-24T08:30:39.020Z,1.57
2022-11-24T08:34:16.598Z,1.60
2022-11-24T08:37:58.148Z,1.63
2022-11-24T08:41:34.283Z,1.64
2022-11-24T08:45:20.547Z,1.64
2022-11-24T08:48:52.423Z,1.65
2022-11-24T08:52:25.859Z,1.68
2022-11-24T08:56:04.306Z,1.69
2022-11-24T08:59:41.064Z,1.69
2022-11-24T09:03:18.256Z,1.68
2022-11-24T09:06:55.866Z,1.68
2022-11-24T09:10:33.973Z,1.68
2022-11-24T09:14:11.520Z,1.65
2022-11-24T09:17:48.969Z,1.63
2022-11-24T09:21:28.004Z,1.65
2022-11-24T09:25:05.978Z,1.66
2022-11-24T09:28:43.105Z,1.67
2022-11-24T09:32:19.684Z,1.69
2022-11-24T09:36:17.857Z,1.71
2022-11-24T09:39:41.554Z,1.74
2022-11-24T09:43:39.522Z,1.76
2022-11-24T09:47:16.004Z,1.78
2022-11-24T09:50:37.841Z,1.77
2022-11-24T09:54:13.638Z,1.78
2022-11-24T09:58:11.259Z,1.80
2022-11-24T10:01:30.288Z,1.83
2022-11-24T10:04:59.798Z,1.90
2022-11-24T10:08:46.863Z,1.91
2022-11-24T10:12:43.514Z,1.91
2022-11-24T10:16:04.848Z,1.92
2022-11-24T10:19:52.677Z,1.95
2022-11-24T10:23:47.020Z,1.97
2022-11-24T10:27:11.359Z,1.96
2022-11-24T10:30:36.451Z,1.99
2022-11-24T10:34:17.959Z,2.03
2022-11-24T10:38:03.259Z,2.04
2022-11-24T10:41:54.731Z,2.04
2022-11-24T10:45:19.858Z,2.03
2022-11-24T10:48:50.559Z,2.02
2022-11-24T10:52:24.945Z,2.01
2022-11-24T10:56:03.792Z,2.03
2022-11-24T10:59:39.608Z,2.05
2022-11-24T11:03:24.118Z,2.05
2022-11-24T11:07:06.961Z,2.05
2022-11-24T11:10:30.496Z,2.07
2022-11-24T11:14:11.276Z,2.12
2022-11-24T11:17:46.108Z,2.17
2022-11-24T11:21:35.267Z,2.17
2022-11-24T11:25:21.281Z,2.15
2022-11-24T11:28:39.220Z,2.16
2022-11-24T11:36:01.402Z,2.18
2022-11-24T11:39:40.435Z,2.19
2022-11-24T11:43:32.157Z,2.23
2022-11-24T11:46:50.076Z,2.26
2022-11-24T11:51:21.626Z,2.28
2022-11-24T11:54:37.663Z,2.34
2022-11-24T11:58:17.040Z,2.37
2022-11-24T12:01:49.072Z,2.37
2022-11-24T12:05:42.444Z,2.38
2022-11-24T12:09:21.943Z,2.42
2022-11-24T12:13:06.557Z,2.43
2022-11-24T12:16:32.573Z,2.41
2022-11-24T12:20:17.527Z,2.39
2022-11-24T12:23:41.135Z,2.41
2022-11-24T12:27:23.224Z,2.42
2022-11-24T12:31:06.379Z,2.37
2022-11-24T12:34:50.785Z,2.36
2022-11-24T12:38:24.341Z,2.35
2022-11-24T12:42:10.648Z,2.32
2022-11-24T12:45:34.546Z,2.32
2022-11-24T12:49:20.731Z,2.36
2022-11-24T12:52:50.969Z,2.39
2022-11-24T12:56:25.695Z,2.41
2022-11-24T12:59:59.816Z,2.43
2022-11-24T13:04:05.479Z,2.43
2022-11-24T13:07:50.856Z,2.41
2022-11-24T13:11:25.105Z,2.40
2022-11-24T13:14:48.859Z,2.39
2022-11-24T13:19:08.951Z,2.39
2022-11-24T13:22:28.116Z,2.35
2022-11-24T13:26:30.237Z,2.36
2022-11-24T13:29:44.588Z,2.36
2022-11-24T13:33:32.195Z,2.36
2022-11-24T13:36:57.023Z,2.36
2022-11-24T13:40:45.826Z,2.36
2022-11-24T13:44:17.733Z,2.37
2022-11-24T13:47:49.699Z,2.35
2022-11-24T13:51:28.451Z,2.32
2022-11-24T13:55:30.714Z,2.30
2022-11-24T13:58:44.375Z,2.28
2022-11-24T14:02:23.769Z,2.30
2022-11-24T14:05:59.246Z,2.30
2022-11-24T14:09:46.304Z,2.32
2022-11-24T14:13:26.327Z,2.32
2022-11-24T14:17:28.557Z,2.32
2022-11-24T14:20:39.790Z,2.31
2022-11-24T14:24:24.866Z,2.31
2022-11-24T14:27:55.148Z,2.30
2022-11-24T14:31:33.128Z,2.29
2022-11-24T14:35:28.996Z,2.28
2022-11-24T14:38:48.003Z,2.29
2022-11-24T14:42:27.672Z,2.29
2022-11-24T14:46:10.157Z,2.31
2022-11-24T14:49:43.109Z,2.31
2022-11-24T14:53:26.280Z,2.33
2022-11-24T14:56:57.853Z,2.33
2022-11-24T15:00:34.191Z,2.35
2022-11-24T15:04:54.419Z,2.36
2022-11-24T15:08:02.593Z,2.38
2022-11-24T15:11:35.327Z,2.40
2022-11-24T15:15:15.305Z,2.42
2022-11-24T15:18:59.249Z,2.44
2022-11-24T15:22:43.800Z,2.46
2022-11-24T15:26:05.529Z,2.47
2022-11-24T15:29:43.235Z,2.48
2022-11-24T15:33:23.907Z,2.48
2022-11-24T15:36:59.156Z,2.49
2022-11-24T15:40:40.751Z,2.50
2022-11-24T15:44:13.949Z,2.52
2022-11-24T15:47:52.371Z,2.54
2022-11-24T15:51:31.120Z,2.55
2022-11-24T15:55:13.251Z,2.54
2022-11-24T15:58:45.072Z,2.54
2022-11-24T16:02:23.786Z,2.50
2022-11-24T16:06:03.761Z,2.45
2022-11-24T16:09:41.845Z,2.45
2022-11-24T16:13:18.884Z,2.43
2022-11-24T16:16:53.900Z,2.40
2022-11-24T16:20:37.712Z,2.39
2022-11-24T16:24:09.719Z,2.38
2022-11-24T16:27:46.374Z,2.40
2022-11-24T16:31:29.662Z,2.42
2022-11-24T16:35:01.807Z,2.40
2022-11-24T16:38:39.613Z,2.40
2022-11-24T16:42:17.932Z,2.40
2022-11-24T16:46:14.531Z,2.42
2022-11-24T16:49:32.626Z,2.41
2022-11-24T16:53:10.429Z,2.39
2022-11-24T16:56:48.033Z,2.39
2022-11-24T17:00:25.637Z,2.41
2022-11-24T17:04:05.108Z,2.40
2022-11-24T17:07:41.215Z,2.40
2022-11-24T17:11:22.140Z,2.39
2022-11-24T17:15:24.426Z,2.38
2022-11-24T17:18:34.668Z,2.39
2022-11-24T17:22:11.962Z,2.37
2022-11-24T17:25:49.564Z,2.39
2022-11-24T17:29:27.704Z,2.38
2022-11-24T17:33:06.051Z,2.37
2022-11-24T17:36:44.929Z,2.36
2022-11-24T17:40:28.409Z,2.35
2022-11-24T17:43:58.376Z,2.34
2022-11-24T17:47:35.789Z,2.35
2022-11-24T17:51:16.110Z,2.34
2022-11-24T17:54:51.203Z,2.32
2022-11-24T17:58:31.267Z,2.32
2022-11-24T18:02:06.764Z,2.31
2022-11-24T18:05:44.411Z,2.31
2022-11-24T18:09:22.217Z,2.31
2022-11-24T18:12:59.922Z,2.31
2022-11-24T18:16:37.382Z,2.31
2022-11-24T18:20:15.841Z,2.30
2022-11-24T18:23:53.344Z,2.29
2022-11-24T18:27:31.557Z,2.29
2022-11-24T18:31:13.915Z,2.29
2022-11-24T18:34:45.890Z,2.30
2022-11-24T18:38:23.850Z,2.27
2022-11-24T18:42:01.369Z,2.24
2022-11-24T18:46:11.973Z,2.25
2022-11-24T18:49:25.769Z,2.37
2022-11-24T18:53:03.373Z,2.38
2022-11-24T18:56:41.280Z,2.38
2022-11-24T19:00:19.086Z,2.38
2022-11-24T19:03:58.941Z,2.37
2022-11-24T19:07:34.261Z,2.37
2022-11-24T19:11:20.084Z,2.36
2022-11-24T19:14:49.508Z,2.35
2022-11-24T19:18:29.555Z,2.35
2022-11-24T19:22:05.143Z,2.36
2022-11-24T19:25:42.810Z,2.36
2022-11-24T19:29:20.886Z,2.36
2022-11-24T19:32:58.014Z,2.38
2022-11-24T19:36:37.324Z,2.38
2022-11-24T19:40:38.015Z,2.38
2022-11-24T19:44:16.128Z,2.38
2022-11-24T19:47:57.796Z,2.37
2022-11-24T19:51:34.294Z,2.36
2022-11-24T19:55:09.158Z,2.37
2022-11-24T19:59:20.603Z,2.39
2022-11-24T20:03:08.274Z,2.40
2022-11-24T20:06:33.607Z,2.41
2022-11-24T20:10:08.120Z,2.41
2022-11-24T20:13:45.848Z,2.40
2022-11-24T20:17:21.259Z,2.40
2022-11-24T20:21:06.748Z,2.40
2022-11-24T20:24:37.016Z,2.39
2022-11-24T20:28:16.154Z,2.38
2022-11-24T20:31:55.835Z,2.36
2022-11-24T20:35:29.858Z,2.36
2022-11-24T20:39:18.297Z,2.38
2022-11-24T20:42:46.110Z,2.38
2022-11-24T20:46:26.377Z,2.37
2022-11-24T20:50:00.814Z,2.39
2022-11-24T20:53:41.688Z,2.38
2022-11-24T20:57:16.029Z,2.37
2022-11-24T21:00:53.558Z,2.37
2022-11-24T21:04:31.818Z,2.38
2022-11-24T21:08:09.012Z,2.38
2022-11-24T21:11:48.856Z,2.39
2022-11-24T21:15:24.869Z,2.39
2022-11-24T21:19:04.625Z,2.39
2022-11-24T21:22:40.483Z,2.38
2022-11-24T21:26:18.464Z,2.38
2022-11-24T21:29:59.358Z,2.41
2022-11-24T21:39:45.792Z,2.37
2022-11-24T21:43:22.723Z,2.36
2022-11-24T21:47:01.733Z,2.34
2022-11-24T21:50:38.382Z,2.33
2022-11-24T21:54:16.834Z,2.30
2022-11-24T21:57:53.687Z,2.27
2022-11-24T22:01:31.453Z,2.26
2022-11-24T22:05:09.607Z,2.26
2022-11-24T22:08:48.133Z,2.25
2022-11-24T22:12:24.503Z,2.24
2022-11-24T22:16:04.993Z,2.25
2022-11-24T22:19:39.707Z,2.26
2022-11-24T22:23:17.513Z,2.26
2022-11-24T22:26:55.115Z,2.27
2022-11-24T22:30:32.924Z,2.28
2022-11-24T22:34:10.422Z,2.29
2022-11-24T22:37:48.437Z,2.31
2022-11-24T22:41:25.939Z,2.33
2022-11-24T22:45:04.250Z,2.31
2022-11-24T22:48:41.870Z,2.29
2022-11-24T22:52:19.045Z,2.27
2022-11-24T22:55:56.647Z,2.26
2022-11-24T22:59:34.455Z,2.26
2022-11-24T23:03:12.126Z,2.25
2022-11-24T23:06:49.963Z,2.25
2022-11-24T23:10:27.463Z,2.25
2022-11-24T23:14:13.462Z,2.26
2022-11-24T23:17:44.002Z,2.27
2022-11-24T23:21:25.184Z,2.26
2022-11-24T23:24:58.382Z,2.26
2022-11-24T23:28:36.597Z,2.25
2022-11-24T23:32:13.620Z,2.22
2022-11-24T23:35:51.430Z,2.19
2022-11-24T23:39:29.105Z,2.17
2022-11-24T23:43:06.902Z,2.15
2022-11-24T23:46:44.504Z,2.14
2022-11-24T23:50:22.310Z,2.13
2022-11-24T23:54:00.644Z,2.14
2022-11-24T23:57:37.670Z,2.14
